sensor_id;sensor_type;location;lat;lon;timestamp;pressure;altitude;pressure_sealevel;temperature;humidity
39223;BME280;24936;46.328;11.026;2022-10-16T00:00:40;94835.06;;;12.42;100.00
39223;BME280;24936;46.328;11.026;2022-10-16T00:03:06;94832.69;;;12.48;100.00
39223;BME280;24936;46.328;11.026;2022-10-16T00:05:32;94840.09;;;12.43;100.00
39223;BME280;24936;46.328;11.026;2022-10-16T00:08:02;94838.97;;;12.41;100.00
39223;BME280;24936;46.328;11.026;2022-10-16T00:10:28;94844.00;;;12.39;100.00
39223;BME280;24936;46.328;11.026;2022-10-16T00:12:54;94840.16;;;12.36;100.00
39223;BME280;24936;46.328;11.026;2022-10-16T00:15:19;94843.28;;;12.35;100.00
39223;BME280;24936;46.328;11.026;2022-10-16T00:17:45;94850.25;;;12.32;100.00
39223;BME280;24936;46.328;11.026;2022-10-16T00:20:10;94839.00;;;12.37;100.00
39223;BME280;24936;46.328;11.026;2022-10-16T00:22:35;94845.94;;;12.42;100.00
39223;BME280;24936;46.328;11.026;2022-10-16T00:25:01;94842.06;;;12.39;100.00
39223;BME280;24936;46.328;11.026;2022-10-16T00:27:26;94844.41;;;12.37;100.00
39223;BME280;24936;46.328;11.026;2022-10-16T00:29:52;94844.78;;;12.39;100.00
39223;BME280;24936;46.328;11.026;2022-10-16T00:32:19;94851.75;;;12.40;100.00
39223;BME280;24936;46.328;11.026;2022-10-16T00:34:45;94856.03;;;12.38;100.00
39223;BME280;24936;46.328;11.026;2022-10-16T00:37:11;94850.59;;;12.41;100.00
39223;BME280;24936;46.328;11.026;2022-10-16T00:39:36;94848.97;;;12.48;100.00
39223;BME280;24936;46.328;11.026;2022-10-16T00:42:02;94852.78;;;12.54;100.00
39223;BME280;24936;46.328;11.026;2022-10-16T00:47:37;94852.44;;;12.52;100.00
39223;BME280;24936;46.328;11.026;2022-10-16T00:50:15;94854.34;;;12.51;100.00
39223;BME280;24936;46.328;11.026;2022-10-16T00:52:44;94866.38;;;12.54;100.00
39223;BME280;24936;46.328;11.026;2022-10-16T00:55:11;94869.94;;;12.43;100.00
39223;BME280;24936;46.328;11.026;2022-10-16T00:57:37;94865.78;;;12.32;100.00
39223;BME280;24936;46.328;11.026;2022-10-16T01:00:07;94862.69;;;12.33;100.00
39223;BME280;24936;46.328;11.026;2022-10-16T01:02:34;94865.22;;;12.51;100.00
39223;BME280;24936;46.328;11.026;2022-10-16T01:04:59;94866.44;;;12.47;100.00
39223;BME280;24936;46.328;11.026;2022-10-16T01:07:45;94871.91;;;12.39;100.00
39223;BME280;24936;46.328;11.026;2022-10-16T01:13:10;94876.97;;;12.37;100.00
39223;BME280;24936;46.328;11.026;2022-10-16T01:15:48;94887.50;;;12.28;100.00
39223;BME280;24936;46.328;11.026;2022-10-16T01:18:46;94886.59;;;12.46;100.00
39223;BME280;24936;46.328;11.026;2022-10-16T01:21:28;94884.72;;;12.39;100.00
39223;BME280;24936;46.328;11.026;2022-10-16T01:27:02;94887.06;;;12.37;100.00
39223;BME280;24936;46.328;11.026;2022-10-16T01:32:17;94879.69;;;12.37;100.00
39223;BME280;24936;46.328;11.026;2022-10-16T01:34:59;94882.19;;;12.17;100.00
39223;BME280;24936;46.328;11.026;2022-10-16T01:40:18;94878.63;;;12.24;100.00
39223;BME280;24936;46.328;11.026;2022-10-16T01:42:48;94884.81;;;12.25;100.00
39223;BME280;24936;46.328;11.026;2022-10-16T01:45:17;94886.75;;;12.28;100.00
39223;BME280;24936;46.328;11.026;2022-10-16T01:47:45;94896.56;;;12.11;100.00
39223;BME280;24936;46.328;11.026;2022-10-16T01:50:12;94888.50;;;12.00;100.00
39223;BME280;24936;46.328;11.026;2022-10-16T01:52:42;94892.81;;;11.90;100.00
39223;BME280;24936;46.328;11.026;2022-10-16T01:55:10;94881.97;;;11.90;100.00
39223;BME280;24936;46.328;11.026;2022-10-16T01:57:40;94889.22;;;12.08;100.00
39223;BME280;24936;46.328;11.026;2022-10-16T02:00:12;94891.47;;;12.16;100.00
39223;BME280;24936;46.328;11.026;2022-10-16T02:02:40;94889.97;;;12.12;100.00
39223;BME280;24936;46.328;11.026;2022-10-16T02:05:37;94888.50;;;12.00;100.00
39223;BME280;24936;46.328;11.026;2022-10-16T02:08:04;94887.78;;;11.89;100.00
39223;BME280;24936;46.328;11.026;2022-10-16T02:10:30;94892.47;;;11.85;100.00
39223;BME280;24936;46.328;11.026;2022-10-16T02:13:13;94889.41;;;11.76;100.00
39223;BME280;24936;46.328;11.026;2022-10-16T02:15:42;94885.13;;;11.78;100.00
39223;BME280;24936;46.328;11.026;2022-10-16T02:18:08;94880.53;;;11.71;100.00
39223;BME280;24936;46.328;11.026;2022-10-16T02:20:51;94882.84;;;11.69;100.00
39223;BME280;24936;46.328;11.026;2022-10-16T02:23:51;94884.84;;;11.55;100.00
39223;BME280;24936;46.328;11.026;2022-10-16T02:26:28;94882.91;;;11.55;100.00
39223;BME280;24936;46.328;11.026;2022-10-16T02:29:00;94886.81;;;11.54;100.00
39223;BME280;24936;46.328;11.026;2022-10-16T02:31:28;94889.94;;;11.49;100.00
39223;BME280;24936;46.328;11.026;2022-10-16T02:33:59;94893.78;;;11.48;100.00
39223;BME280;24936;46.328;11.026;2022-10-16T02:36:28;94883.31;;;11.54;100.00
39223;BME280;24936;46.328;11.026;2022-10-16T02:38:54;94882.91;;;11.55;100.00
39223;BME280;24936;46.328;11.026;2022-10-16T02:41:21;94885.97;;;11.64;100.00
39223;BME280;24936;46.328;11.026;2022-10-16T02:43:48;94882.09;;;11.65;100.00
39223;BME280;24936;46.328;11.026;2022-10-16T02:46:14;94881.00;;;11.52;100.00
39223;BME280;24936;46.328;11.026;2022-10-16T02:52:02;94891.88;;;11.49;100.00
39223;BME280;24936;46.328;11.026;2022-10-16T02:54:27;94886.09;;;11.39;100.00
39223;BME280;24936;46.328;11.026;2022-10-16T02:56:52;94890.78;;;11.32;100.00
39223;BME280;24936;46.328;11.026;2022-10-16T02:59:18;94899.66;;;11.32;100.00
39223;BME280;24936;46.328;11.026;2022-10-16T03:01:43;94894.63;;;11.34;100.00
39223;BME280;24936;46.328;11.026;2022-10-16T03:04:09;94893.44;;;11.39;100.00
39223;BME280;24936;46.328;11.026;2022-10-16T03:06:34;94897.31;;;11.45;100.00
39223;BME280;24936;46.328;11.026;2022-10-16T03:09:00;94893.41;;;11.53;100.00
39223;BME280;24936;46.328;11.026;2022-10-16T03:11:25;94887.22;;;11.53;100.00
39223;BME280;24936;46.328;11.026;2022-10-16T03:13:51;94889.53;;;11.51;100.00
39223;BME280;24936;46.328;11.026;2022-10-16T03:16:17;94890.69;;;11.53;100.00
39223;BME280;24936;46.328;11.026;2022-10-16T03:18:42;94886.03;;;11.57;100.00
39223;BME280;24936;46.328;11.026;2022-10-16T03:21:08;94884.50;;;11.53;100.00
39223;BME280;24936;46.328;11.026;2022-10-16T03:23:33;94882.97;;;11.44;100.00
39223;BME280;24936;46.328;11.026;2022-10-16T03:25:58;94882.97;;;11.44;100.00
39223;BME280;24936;46.328;11.026;2022-10-16T03:28:24;94880.25;;;11.44;100.00
39223;BME280;24936;46.328;11.026;2022-10-16T03:30:49;94888.38;;;11.44;100.00
39223;BME280;24936;46.328;11.026;2022-10-16T03:33:15;94892.28;;;11.43;100.00
39223;BME280;24936;46.328;11.026;2022-10-16T03:35:40;94888.78;;;11.43;100.00
39223;BME280;24936;46.328;11.026;2022-10-16T03:38:06;94887.25;;;11.42;100.00
39223;BME280;24936;46.328;11.026;2022-10-16T03:40:31;94889.97;;;11.42;100.00
39223;BME280;24936;46.328;11.026;2022-10-16T03:42:59;94887.59;;;11.51;100.00
39223;BME280;24936;46.328;11.026;2022-10-16T03:45:25;94892.56;;;11.60;100.00
39223;BME280;24936;46.328;11.026;2022-10-16T03:47:51;94899.91;;;11.63;100.00
39223;BME280;24936;46.328;11.026;2022-10-16T03:50:16;94893.72;;;11.66;100.00
39223;BME280;24936;46.328;11.026;2022-10-16T03:52:42;94896.84;;;11.61;100.00
39223;BME280;24936;46.328;11.026;2022-10-16T03:55:07;94896.84;;;11.61;100.00
39223;BME280;24936;46.328;11.026;2022-10-16T03:57:33;94894.91;;;11.58;100.00
39223;BME280;24936;46.328;11.026;2022-10-16T03:59:59;94901.13;;;11.51;100.00
39223;BME280;24936;46.328;11.026;2022-10-16T04:02:24;94903.84;;;11.51;100.00
39223;BME280;24936;46.328;11.026;2022-10-16T04:04:49;94908.53;;;11.43;100.00
39223;BME280;24936;46.328;11.026;2022-10-16T04:07:15;94907.00;;;11.39;100.00
39223;BME280;24936;46.328;11.026;2022-10-16T04:09:40;94903.09;;;11.43;100.00
39223;BME280;24936;46.328;11.026;2022-10-16T04:12:07;94913.13;;;11.57;100.00
39223;BME280;24936;46.328;11.026;2022-10-16T04:14:32;94915.44;;;11.59;100.00
39223;BME280;24936;46.328;11.026;2022-10-16T04:16:58;94913.50;;;11.52;100.00
39223;BME280;24936;46.328;11.026;2022-10-16T04:19:23;94912.38;;;11.50;100.00
39223;BME280;24936;46.328;11.026;2022-10-16T04:21:49;94910.44;;;11.50;100.00
39223;BME280;24936;46.328;11.026;2022-10-16T04:24:15;94914.31;;;11.53;100.00
39223;BME280;24936;46.328;11.026;2022-10-16T04:26:40;94913.16;;;11.50;100.00
39223;BME280;24936;46.328;11.026;2022-10-16T04:29:05;94912.75;;;11.52;100.00
39223;BME280;24936;46.328;11.026;2022-10-16T04:31:32;94911.59;;;11.53;100.00
39223;BME280;24936;46.328;11.026;2022-10-16T04:33:57;94917.78;;;11.57;100.00
39223;BME280;24936;46.328;11.026;2022-10-16T04:36:22;94912.75;;;11.48;100.00
39223;BME280;24936;46.328;11.026;2022-10-16T04:38:48;94914.72;;;11.40;100.00
39223;BME280;24936;46.328;11.026;2022-10-16T04:41:13;94916.69;;;11.36;100.00
39223;BME280;24936;46.328;11.026;2022-10-16T04:43:39;94916.31;;;11.34;100.00
39223;BME280;24936;46.328;11.026;2022-10-16T04:46:04;94910.91;;;11.27;100.00
39223;BME280;24936;46.328;11.026;2022-10-16T04:48:30;94912.47;;;11.28;100.00
39223;BME280;24936;46.328;11.026;2022-10-16T04:50:56;94914.38;;;11.31;100.00
39223;BME280;24936;46.328;11.026;2022-10-16T04:53:21;94916.34;;;11.27;100.00
39223;BME280;24936;46.328;11.026;2022-10-16T04:55:47;94921.00;;;11.27;100.00
39223;BME280;24936;46.328;11.026;2022-10-16T04:58:13;94927.19;;;11.27;100.00
39223;BME280;24936;46.328;11.026;2022-10-16T05:00:38;94927.19;;;11.27;100.00
39223;BME280;24936;46.328;11.026;2022-10-16T05:03:04;94922.13;;;11.29;100.00
39223;BME280;24936;46.328;11.026;2022-10-16T05:05:33;94923.31;;;11.21;100.00
39223;BME280;24936;46.328;11.026;2022-10-16T05:07:58;94927.97;;;11.13;100.00
39223;BME280;24936;46.328;11.026;2022-10-16T05:10:24;94927.63;;;11.11;100.00
39223;BME280;24936;46.328;11.026;2022-10-16T05:12:49;94935.75;;;11.04;100.00
39223;BME280;24936;46.328;11.026;2022-10-16T05:15:16;94934.97;;;11.04;100.00
39223;BME280;24936;46.328;11.026;2022-10-16T05:17:41;94943.47;;;10.98;100.00
39223;BME280;24936;46.328;11.026;2022-10-16T05:20:07;94943.91;;;10.90;100.00
39223;BME280;24936;46.328;11.026;2022-10-16T05:22:32;94945.44;;;10.87;100.00
39223;BME280;24936;46.328;11.026;2022-10-16T05:24:58;94945.84;;;10.89;100.00
39223;BME280;24936;46.328;11.026;2022-10-16T05:27:23;94944.28;;;10.88;100.00
39223;BME280;24936;46.328;11.026;2022-10-16T05:29:49;94948.53;;;10.96;100.00
39223;BME280;24936;46.328;11.026;2022-10-16T05:32:15;94957.03;;;10.98;100.00
39223;BME280;24936;46.328;11.026;2022-10-16T05:34:41;94960.13;;;11.01;100.00
39223;BME280;24936;46.328;11.026;2022-10-16T05:37:07;94956.66;;;10.93;100.00
39223;BME280;24936;46.328;11.026;2022-10-16T05:39:32;94960.91;;;10.94;100.00
39223;BME280;24936;46.328;11.026;2022-10-16T05:41:58;94957.81;;;10.99;100.00
39223;BME280;24936;46.328;11.026;2022-10-16T05:44:23;94964.78;;;11.00;100.00
39223;BME280;24936;46.328;11.026;2022-10-16T05:46:49;94966.72;;;10.96;100.00
39223;BME280;24936;46.328;11.026;2022-10-16T05:49:14;94972.91;;;10.89;100.00
39223;BME280;24936;46.328;11.026;2022-10-16T05:51:40;94970.59;;;10.91;100.00
39223;BME280;24936;46.328;11.026;2022-10-16T05:54:06;94974.44;;;10.83;100.00
39223;BME280;24936;46.328;11.026;2022-10-16T05:56:31;94974.44;;;10.87;100.00
39223;BME280;24936;46.328;11.026;2022-10-16T05:58:57;94984.13;;;10.88;100.00
39223;BME280;24936;46.328;11.026;2022-10-16T06:01:22;94978.72;;;10.88;100.00
39223;BME280;24936;46.328;11.026;2022-10-16T06:03:50;94986.03;;;10.94;100.00
39223;BME280;24936;46.328;11.026;2022-10-16T06:06:20;94987.97;;;11.01;100.00
39223;BME280;24936;46.328;11.026;2022-10-16T06:08:47;94990.69;;;11.12;100.00
39223;BME280;24936;46.328;11.026;2022-10-16T06:11:17;94991.44;;;11.16;100.00
39223;BME280;24936;46.328;11.026;2022-10-16T06:13:43;94999.97;;;11.11;100.00
39223;BME280;24936;46.328;11.026;2022-10-16T06:16:11;95004.59;;;11.14;100.00
39223;BME280;24936;46.328;11.026;2022-10-16T06:18:37;95006.50;;;11.24;100.00
39223;BME280;24936;46.328;11.026;2022-10-16T06:21:19;95003.03;;;11.27;100.00
39223;BME280;24936;46.328;11.026;2022-10-16T06:23:45;95014.22;;;11.36;100.00
39223;BME280;24936;46.328;11.026;2022-10-16T06:26:13;95014.97;;;11.47;100.00
39223;BME280;24936;46.328;11.026;2022-10-16T06:28:39;95008.38;;;11.52;100.00
39223;BME280;24936;46.328;11.026;2022-10-16T06:31:07;95023.84;;;11.52;100.00
39223;BME280;24936;46.328;11.026;2022-10-16T06:33:32;95020.78;;;11.53;100.00
39223;BME280;24936;46.328;11.026;2022-10-16T06:36:07;95031.59;;;11.60;100.00
39223;BME280;24936;46.328;11.026;2022-10-16T06:38:33;95033.09;;;11.72;100.00
39223;BME280;24936;46.328;11.026;2022-10-16T06:40:59;95029.97;;;11.81;100.00
39223;BME280;24936;46.328;11.026;2022-10-16T06:43:25;95032.69;;;11.88;100.00
39223;BME280;24936;46.328;11.026;2022-10-16T06:45:52;95030.72;;;11.99;100.00
39223;BME280;24936;46.328;11.026;2022-10-16T06:48:19;95034.53;;;12.09;100.00
39223;BME280;24936;46.328;11.026;2022-10-16T06:50:44;95041.44;;;12.17;100.00
39223;BME280;24936;46.328;11.026;2022-10-16T06:53:10;95038.69;;;12.28;100.00
39223;BME280;24936;46.328;11.026;2022-10-16T06:55:35;95049.81;;;12.48;100.00
39223;BME280;24936;46.328;11.026;2022-10-16T06:58:00;95043.88;;;12.71;100.00
39223;BME280;24936;46.328;11.026;2022-10-16T07:00:26;95043.03;;;12.77;100.00
39223;BME280;24936;46.328;11.026;2022-10-16T07:02:51;95049.94;;;12.85;100.00
39223;BME280;24936;46.328;11.026;2022-10-16T07:05:16;95050.69;;;12.89;100.00
39223;BME280;24936;46.328;11.026;2022-10-16T07:07:42;95056.47;;;12.95;100.00
39223;BME280;24936;46.328;11.026;2022-10-16T07:10:08;95056.75;;;13.08;100.00
39223;BME280;24936;46.328;11.026;2022-10-16T07:12:33;95053.53;;;13.20;100.00
39223;BME280;24936;46.328;11.026;2022-10-16T07:14:59;95056.97;;;13.31;100.00
39223;BME280;24936;46.328;11.026;2022-10-16T07:17:24;95056.50;;;13.44;100.00
39223;BME280;24936;46.328;11.026;2022-10-16T07:19:49;95054.44;;;13.55;100.00
39223;BME280;24936;46.328;11.026;2022-10-16T07:22:17;95055.69;;;13.81;100.00
39223;BME280;24936;46.328;11.026;2022-10-16T07:24:43;95054.31;;;14.00;100.00
39223;BME280;24936;46.328;11.026;2022-10-16T07:27:09;95061.16;;;14.11;100.00
39223;BME280;24936;46.328;11.026;2022-10-16T07:29:34;95058.03;;;14.17;100.00
39223;BME280;24936;46.328;11.026;2022-10-16T07:32:01;95058.91;;;14.37;100.00
39223;BME280;24936;46.328;11.026;2022-10-16T07:34:27;95052.19;;;14.45;100.00
39223;BME280;24936;46.328;11.026;2022-10-16T07:36:52;95058.78;;;14.48;100.00
39223;BME280;24936;46.328;11.026;2022-10-16T07:39:18;95061.44;;;14.55;100.00
39223;BME280;24936;46.328;11.026;2022-10-16T07:41:44;95055.06;;;14.65;100.00
39223;BME280;24936;46.328;11.026;2022-10-16T07:44:09;95055.00;;;14.69;100.00
39223;BME280;24936;46.328;11.026;2022-10-16T07:46:35;95067.09;;;14.68;100.00
39223;BME280;24936;46.328;11.026;2022-10-16T07:49:01;95063.59;;;14.67;100.00
39223;BME280;24936;46.328;11.026;2022-10-16T07:51:27;95059.47;;;14.82;100.00
39223;BME280;24936;46.328;11.026;2022-10-16T07:53:52;95061.78;;;14.84;100.00
39223;BME280;24936;46.328;11.026;2022-10-16T07:56:19;95062.19;;;14.82;100.00
39223;BME280;24936;46.328;11.026;2022-10-16T07:58:45;95064.00;;;14.93;100.00
39223;BME280;24936;46.328;11.026;2022-10-16T08:01:11;95065.38;;;15.04;100.00
39223;BME280;24936;46.328;11.026;2022-10-16T08:03:38;95063.66;;;15.14;100.00
39223;BME280;24936;46.328;11.026;2022-10-16T08:06:04;95063.47;;;15.25;100.00
39223;BME280;24936;46.328;11.026;2022-10-16T08:08:29;95075.69;;;15.40;100.00
39223;BME280;24936;46.328;11.026;2022-10-16T08:10:55;95068.97;;;15.45;100.00
39223;BME280;24936;46.328;11.026;2022-10-16T08:13:21;95065.84;;;15.46;100.00
39223;BME280;24936;46.328;11.026;2022-10-16T08:15:46;95069.50;;;15.59;100.00
39223;BME280;24936;46.328;11.026;2022-10-16T08:18:13;95065.59;;;15.60;100.00
39223;BME280;24936;46.328;11.026;2022-10-16T08:20:40;95067.13;;;15.65;100.00
39223;BME280;24936;46.328;11.026;2022-10-16T08:23:06;95066.84;;;15.79;100.00
39223;BME280;24936;46.328;11.026;2022-10-16T08:25:33;95062.38;;;15.89;100.00
39223;BME280;24936;46.328;11.026;2022-10-16T08:27:59;95069.00;;;16.28;100.00
39223;BME280;24936;46.328;11.026;2022-10-16T08:30:25;95055.56;;;17.71;100.00
39223;BME280;24936;46.328;11.026;2022-10-16T08:32:53;95040.28;;;19.09;100.00
39223;BME280;24936;46.328;11.026;2022-10-16T08:35:18;95032.94;;;19.88;100.00
39223;BME280;24936;46.328;11.026;2022-10-16T08:37:43;95027.22;;;20.48;100.00
39223;BME280;24936;46.328;11.026;2022-10-16T08:40:19;95032.56;;;20.64;100.00
39223;BME280;24936;46.328;11.026;2022-10-16T08:48:09;95028.41;;;22.32;100.00
39223;BME280;24936;46.328;11.026;2022-10-16T08:50:40;95027.03;;;22.28;100.00
39223;BME280;24936;46.328;11.026;2022-10-16T08:53:06;95022.78;;;22.69;100.00
39223;BME280;24936;46.328;11.026;2022-10-16T08:55:43;95029.88;;;23.03;100.00
39223;BME280;24936;46.328;11.026;2022-10-16T08:58:15;95023.94;;;22.44;100.00
39223;BME280;24936;46.328;11.026;2022-10-16T09:00:44;95023.53;;;22.79;100.00
39223;BME280;24936;46.328;11.026;2022-10-16T09:17:13;95019.66;;;23.52;100.00
39223;BME280;24936;46.328;11.026;2022-10-16T09:19:47;95012.97;;;23.68;100.00
39223;BME280;24936;46.328;11.026;2022-10-16T09:22:15;95010.00;;;23.23;100.00
39223;BME280;24936;46.328;11.026;2022-10-16T09:24:42;95013.06;;;23.25;100.00
39223;BME280;24936;46.328;11.026;2022-10-16T09:27:14;95009.94;;;23.80;100.00
39223;BME280;24936;46.328;11.026;2022-10-16T09:29:40;94998.78;;;23.27;100.00
39223;BME280;24936;46.328;11.026;2022-10-16T09:32:17;94999.06;;;23.53;100.00
39223;BME280;24936;46.328;11.026;2022-10-16T09:35:01;95011.53;;;23.96;100.00
39223;BME280;24936;46.328;11.026;2022-10-16T09:37:27;95008.53;;;24.00;100.00
39223;BME280;24936;46.328;11.026;2022-10-16T09:39:53;95004.41;;;24.64;100.00
39223;BME280;24936;46.328;11.026;2022-10-16T09:42:20;95012.06;;;24.69;100.00
39223;BME280;24936;46.328;11.026;2022-10-16T09:44:49;95011.19;;;24.48;100.00
39223;BME280;24936;46.328;11.026;2022-10-16T09:47:21;95004.13;;;24.76;100.00
39223;BME280;24936;46.328;11.026;2022-10-16T09:49:53;95011.63;;;24.02;100.00
39223;BME280;24936;46.328;11.026;2022-10-16T09:52:21;95001.44;;;24.08;100.00
39223;BME280;24936;46.328;11.026;2022-10-16T09:54:53;95008.34;;;23.89;100.00
39223;BME280;24936;46.328;11.026;2022-10-16T09:57:19;95010.97;;;24.22;100.00
39223;BME280;24936;46.328;11.026;2022-10-16T09:59:50;95014.63;;;23.65;100.00
39223;BME280;24936;46.328;11.026;2022-10-16T10:02:18;94996.47;;;24.71;100.00
39223;BME280;24936;46.328;11.026;2022-10-16T10:04:51;94997.69;;;25.56;100.00
39223;BME280;24936;46.328;11.026;2022-10-16T10:07:45;94995.53;;;26.32;100.00
39223;BME280;24936;46.328;11.026;2022-10-16T10:10:23;95000.09;;;24.77;100.00
39223;BME280;24936;46.328;11.026;2022-10-16T10:12:49;95011.91;;;24.19;100.00
39223;BME280;24936;46.328;11.026;2022-10-16T10:15:15;95008.16;;;23.92;100.00
39223;BME280;24936;46.328;11.026;2022-10-16T10:17:54;95002.97;;;22.37;100.00
39223;BME280;24936;46.328;11.026;2022-10-16T10:22:54;95003.09;;;21.24;100.00
39223;BME280;24936;46.328;11.026;2022-10-16T10:25:26;94998.91;;;21.01;100.00
39223;BME280;24936;46.328;11.026;2022-10-16T10:38:59;94986.47;;;20.87;100.00
39223;BME280;24936;46.328;11.026;2022-10-16T10:44:39;94986.47;;;22.10;100.00
39223;BME280;24936;46.328;11.026;2022-10-16T10:58:48;94967.31;;;21.24;100.00
39223;BME280;24936;46.328;11.026;2022-10-16T11:01:40;94966.88;;;21.99;100.00
39223;BME280;24936;46.328;11.026;2022-10-16T11:06:43;94958.06;;;23.37;100.00
39223;BME280;24936;46.328;11.026;2022-10-16T11:09:13;94953.31;;;23.37;100.00
39223;BME280;24936;46.328;11.026;2022-10-16T11:11:51;94958.31;;;22.57;100.00
39223;BME280;24936;46.328;11.026;2022-10-16T11:14:20;94959.81;;;22.25;100.00
39223;BME280;24936;46.328;11.026;2022-10-16T11:22:32;94952.06;;;21.59;100.00
39223;BME280;24936;46.328;11.026;2022-10-16T11:27:38;94940.25;;;21.96;100.00
39223;BME280;24936;46.328;11.026;2022-10-16T11:30:30;94941.22;;;22.44;100.00
39223;BME280;24936;46.328;11.026;2022-10-16T11:44:03;94936.34;;;22.72;100.00
39223;BME280;24936;46.328;11.026;2022-10-16T11:46:32;94932.75;;;23.38;100.00
39223;BME280;24936;46.328;11.026;2022-10-16T11:49:08;94931.84;;;23.56;100.00
39223;BME280;24936;46.328;11.026;2022-10-16T11:51:40;94929.09;;;23.56;100.00
39223;BME280;24936;46.328;11.026;2022-10-16T11:54:21;94920.97;;;23.91;100.00
39223;BME280;24936;46.328;11.026;2022-10-16T11:56:53;94914.19;;;24.07;100.00
39223;BME280;24936;46.328;11.026;2022-10-16T12:01:52;94922.84;;;23.70;96.90
39223;BME280;24936;46.328;11.026;2022-10-16T12:04:43;94923.06;;;23.96;97.57
39223;BME280;24936;46.328;11.026;2022-10-16T12:07:14;94910.66;;;24.51;97.83
39223;BME280;24936;46.328;11.026;2022-10-16T12:09:41;94908.69;;;24.72;99.27
39223;BME280;24936;46.328;11.026;2022-10-16T12:12:46;94906.00;;;24.13;100.00
39223;BME280;24936;46.328;11.026;2022-10-16T12:15:28;94913.34;;;23.86;100.00
39223;BME280;24936;46.328;11.026;2022-10-16T12:17:55;94902.56;;;24.47;100.00
39223;BME280;24936;46.328;11.026;2022-10-16T12:20:29;94914.59;;;23.85;100.00
39223;BME280;24936;46.328;11.026;2022-10-16T12:23:01;94906.31;;;23.85;100.00
39223;BME280;24936;46.328;11.026;2022-10-16T12:25:34;94911.16;;;23.90;100.00
39223;BME280;24936;46.328;11.026;2022-10-16T12:28:26;94907.88;;;23.62;100.00
39223;BME280;24936;46.328;11.026;2022-10-16T12:30:58;94909.84;;;23.62;100.00
39223;BME280;24936;46.328;11.026;2022-10-16T12:33:27;94900.56;;;24.03;100.00
39223;BME280;24936;46.328;11.026;2022-10-16T12:35:53;94911.81;;;23.70;100.00
39223;BME280;24936;46.328;11.026;2022-10-16T12:38:26;94903.91;;;23.78;100.00
39223;BME280;24936;46.328;11.026;2022-10-16T12:41:01;94908.84;;;23.89;100.00
39223;BME280;24936;46.328;11.026;2022-10-16T12:43:35;94907.91;;;24.06;100.00
39223;BME280;24936;46.328;11.026;2022-10-16T12:48:35;94913.03;;;23.84;100.00
39223;BME280;24936;46.328;11.026;2022-10-16T12:53:36;94904.47;;;23.67;100.00
39223;BME280;24936;46.328;11.026;2022-10-16T13:10:02;94921.47;;;23.51;100.00
39223;BME280;24936;46.328;11.026;2022-10-16T13:12:52;94920.56;;;23.45;100.00
39223;BME280;24936;46.328;11.026;2022-10-16T13:15:47;94921.03;;;23.28;100.00
39223;BME280;24936;46.328;11.026;2022-10-16T13:26:20;94921.56;;;23.56;100.00
39223;BME280;24936;46.328;11.026;2022-10-16T13:28:48;94913.81;;;23.46;100.00
39223;BME280;24936;46.328;11.026;2022-10-16T13:31:18;94921.16;;;23.88;100.00
39223;BME280;24936;46.328;11.026;2022-10-16T13:33:48;94916.75;;;23.66;100.00
39223;BME280;24936;46.328;11.026;2022-10-16T13:36:24;94923.84;;;22.95;100.00
39223;BME280;24936;46.328;11.026;2022-10-16T13:41:37;94926.06;;;23.06;100.00
39223;BME280;24936;46.328;11.026;2022-10-16T13:44:02;94931.06;;;22.93;100.00
39223;BME280;24936;46.328;11.026;2022-10-16T13:46:28;94932.28;;;22.92;100.00
39223;BME280;24936;46.328;11.026;2022-10-16T13:49:06;94932.19;;;22.77;100.00
39223;BME280;24936;46.328;11.026;2022-10-16T13:51:36;94938.09;;;22.60;100.00
39223;BME280;24936;46.328;11.026;2022-10-16T13:54:02;94931.16;;;22.74;100.00
39223;BME280;24936;46.328;11.026;2022-10-16T13:56:30;94933.66;;;22.87;100.00
39223;BME280;24936;46.328;11.026;2022-10-16T13:59:01;94939.03;;;22.57;100.00
39223;BME280;24936;46.328;11.026;2022-10-16T14:01:44;94938.34;;;22.72;100.00
39223;BME280;24936;46.328;11.026;2022-10-16T14:04:12;94944.81;;;22.26;100.00
39223;BME280;24936;46.328;11.026;2022-10-16T14:06:44;94930.75;;;22.57;100.00
39223;BME280;24936;46.328;11.026;2022-10-16T14:09:25;94933.72;;;22.35;100.00
39223;BME280;24936;46.328;11.026;2022-10-16T14:12:02;94928.81;;;22.39;100.00
39223;BME280;24936;46.328;11.026;2022-10-16T14:14:32;94938.22;;;22.24;100.00
39223;BME280;24936;46.328;11.026;2022-10-16T14:16:59;94927.72;;;21.95;100.00
39223;BME280;24936;46.328;11.026;2022-10-16T14:19:27;94929.72;;;21.94;100.00
39223;BME280;24936;46.328;11.026;2022-10-16T14:21:53;94931.53;;;21.88;100.00
39223;BME280;24936;46.328;11.026;2022-10-16T14:24:35;94935.69;;;21.74;100.00
39223;BME280;24936;46.328;11.026;2022-10-16T14:27:01;94944.72;;;21.65;100.00
39223;BME280;24936;46.328;11.026;2022-10-16T14:29:28;94941.97;;;21.65;100.00
39223;BME280;24936;46.328;11.026;2022-10-16T14:32:00;94932.75;;;21.32;100.00
39223;BME280;24936;46.328;11.026;2022-10-16T14:34:30;94939.38;;;21.34;100.00
39223;BME280;24936;46.328;11.026;2022-10-16T14:39:33;94939.31;;;21.25;100.00
39223;BME280;24936;46.328;11.026;2022-10-16T14:41:59;94946.81;;;21.25;100.00
39223;BME280;24936;46.328;11.026;2022-10-16T14:44:34;94942.81;;;20.98;100.00
39223;BME280;24936;46.328;11.026;2022-10-16T14:47:08;94948.34;;;21.07;100.00
39223;BME280;24936;46.328;11.026;2022-10-16T14:49:34;94940.94;;;20.86;100.00
39223;BME280;24936;46.328;11.026;2022-10-16T14:52:01;94952.75;;;20.96;100.00